Latest Coastal Weather Observations for Coolangatta (QLD)

IDN60701

Issued at 4:21 am EST Tuesday 20 August 2019 (issued every 10 minutes, with the page automatically refreshed every 10 minutes)

About coastal observations | Map of coastal stations | Coastal observations for NSW | Marine services | Other Formats
Station Details ID: 040717 Name: COOLANGATTA Lat: -28.17 Lon: 153.51 Height: 4.0 m
Data from the previous 72 hours. | See also: Recent months at Coolangatta (QLD)

Observations at Coolangatta are collected in the Queensland time zone, which does not include daylight savings during the summer period. Therefore 'Rain since 9am' totals and other values are based on the Queensland time zone.

Date/Time
EST
Wind Sea
Height
m
Swell Vis
km
Cloud Weather Temp
°C
Press
hPa
Rain since
9am
mm
Dir  Spd
kts
Gust
kts
Height
m
Period
s
Dir
20/04:00am S 11 14 - - - - 10 - - 12.6 1021.9 0.0
20/03:30am SSW 11 19 - - - - 10 - - 13.3 1021.7 0.0
20/03:00am S 13 19 - - - - 10 - - 13.9 1021.6 0.0
20/02:30am SSW 13 22 - - - - 10 - - 14.3 1021.6 0.0
20/02:00am SSW 11 17 - - - - 10 - - 14.5 1021.5 0.0
20/01:30am SSW 7 10 - - - - 10 - - 14.7 1021.1 0.0
20/01:00am SSW 8 11 - - - - 10 - - 15.3 1021.0 0.0
20/12:30am SW 6 9 - - - - 10 Partly cloudy - 15.6 1021.2 0.0
20/12:00am SW 8 13 - - - - 10 Mostly clear - 16.2 1021.0 0.0
 
Date/Time
EST
Wind Sea
Height
m
Swell Vis
km
Cloud Weather Temp
°C
Press
hPa
Rain since
9am
mm
Dir  Spd
kts
Gust
kts
Height
m
Period
s
Dir
19/11:30pm SW 6 11 - - - - 10 Partly cloudy - 16.8 1020.9 0.0
19/11:00pm SSW 7 9 - - - - 10 Partly cloudy - 16.9 1020.8 0.0
19/10:30pm SW 5 8 - - - - 10 Partly cloudy - 16.8 1020.7 0.0
19/10:00pm SW 6 8 - - - - 10 Partly cloudy - 16.8 1020.6 0.0
19/09:30pm SSW 6 9 - - - - 10 Partly cloudy - 16.9 1020.4 0.0
19/09:00pm S 5 8 - - - - 10 - - 16.5 1020.0 0.0
19/08:30pm S 8 13 - - - - 10 - - 17.2 1019.6 0.0
19/08:00pm S 10 13 - - - - 10 - - 17.7 1019.2 0.0
19/07:30pm S 12 17 - - - - 10 - - 18.0 1018.2 0.0
19/07:00pm S 17 25 - - - - 10 - - 18.5 1017.4 0.0
19/06:30pm SSE 13 19 - - - - 10 - - 19.2 1016.5 0.0
19/06:00pm SW 9 14 - - - - 10 - - 22.5 1015.2 0.0
19/05:30pm WSW 8 13 - - - - 10 - - 22.6 1014.3 0.0
19/05:00pm WNW 9 14 - - - - 10 - - 24.4 1013.5 0.0
19/04:30pm WNW 9 15 - - - - 10 - - 25.9 1012.9 0.0
19/04:00pm WNW 9 13 - - - - 10 - - 26.9 1012.5 0.0
19/03:30pm NW 12 20 - - - - 10 - - 27.2 1012.0 0.0
19/03:00pm N 11 17 - - - - 10 - - 25.7 1011.8 0.0
19/02:30pm N 15 19 - - - - 10 - - 23.4 1012.1 0.0
19/02:00pm N 17 21 - - - - 10 - - 23.5 1012.3 0.0
19/01:30pm N 15 22 - - - - 10 - - 23.7 1012.6 0.0
19/01:00pm N 16 20 - - - - 10 - - 24.7 1012.9 0.0
19/12:30pm NNW 14 19 - - - - 10 - - 25.8 1013.1 0.0
19/12:00pm NNW 17 24 - - - - 10 - - 23.9 1013.5 0.0
19/11:30am NNW 18 23 - - - - 10 - - 24.2 1014.1 0.0
19/11:00am NNW 16 24 - - - - 10 - - 24.3 1014.4 0.0
19/10:30am NW 14 19 - - - - 10 - - 24.2 1015.0 0.0
19/10:00am N 19 23 - - - - 10 - - 22.3 1015.3 0.0
19/09:30am NNW 15 20 - - - - 10 - - 22.1 1015.8 0.0
19/09:00am NW 14 19 - - - - 10 - - 21.7 1016.0 0.0
19/08:30am NNW 11 17 - - - - 10 - - 21.0 1016.1 0.0
19/08:00am NW 11 16 - - - - 10 - - 20.3 1016.2 0.0
19/07:30am NW 10 14 - - - - 10 - - 18.5 1016.1 0.0
19/07:00am NNW 8 11 - - - - 10 - - 17.4 1015.5 0.0
19/06:30am NW 8 10 - - - - 10 - - 17.0 1015.4 0.0
19/06:00am NW 9 11 - - - - 10 Mostly clear - 17.0 1015.1 0.0
19/05:30am NW 12 16 - - - - 10 - - 17.3 1014.9 0.0
19/05:00am NW 12 15 - - - - 10 Partly cloudy - 16.9 1014.9 0.0
19/04:30am NW 11 14 - - - - 10 Partly cloudy - 17.2 1014.9 0.0
19/04:00am NW 10 13 - - - - 10 - - 17.3 1014.9 0.0
19/03:30am NW 11 14 - - - - 10 - - 17.7 1015.0 0.0
19/03:00am NW 13 18 - - - - 10 - - 17.6 1015.2 0.0
19/02:30am NW 11 16 - - - - 10 - - 17.5 1015.6 0.0
19/02:00am NW 7 11 - - - - 10 - - 17.4 1015.9 0.0
19/01:30am NW 8 13 - - - - 10 - - 17.5 1016.1 0.0
19/01:00am NW 8 11 - - - - 10 - - 17.3 1016.8 0.0
19/12:30am NW 7 11 - - - - 10 - - 17.2 1017.2 0.0
19/12:00am WNW 6 8 - - - - 10 - - 16.9 1017.5 0.0
 
Date/Time
EST
Wind Sea
Height
m
Swell Vis
km
Cloud Weather Temp
°C
Press
hPa
Rain since
9am
mm
Dir  Spd
kts
Gust
kts
Height
m
Period
s
Dir
18/11:30pm NW 8 11 - - - - 10 - - 17.0 1017.6 0.0
18/11:00pm NW 5 7 - - - - 10 - - 16.4 1017.7 0.0
18/10:30pm NW 5 7 - - - - 10 - - 16.2 1018.0 0.0
18/10:00pm NW 6 8 - - - - 10 - - 15.9 1018.2 0.0
18/09:30pm WNW 5 6 - - - - 10 Partly cloudy - 15.3 1018.4 0.0
18/09:00pm WNW 5 6 - - - - 10 Partly cloudy - 15.6 1018.6 0.0
18/08:30pm WNW 6 7 - - - - 10 Partly cloudy - 15.8 1018.7 0.0
18/08:00pm NNW 7 9 - - - - 10 - - 17.8 1018.6 0.0
18/07:30pm N 9 11 - - - - 10 - - 18.5 1018.4 0.0
18/07:00pm N 7 10 - - - - 10 - - 17.9 1018.3 0.0
18/06:30pm N 8 11 - - - - 10 - - 18.6 1018.2 0.0
18/06:00pm N 7 9 - - - - 10 - - 18.8 1018.1 0.0
18/05:30pm N 9 11 - - - - 10 - - 19.2 1017.8 0.0
18/05:00pm N 7 9 - - - - 10 - - 19.5 1017.7 0.0
18/04:30pm NNE 7 10 - - - - 10 - - 20.0 1017.8 0.0
18/04:00pm NE 7 10 - - - - 10 - - 20.4 1017.8 0.0
18/03:30pm NE 8 11 - - - - 10 - - 20.4 1017.8 0.0
18/03:00pm NE 9 11 - - - - 10 - - 20.8 1017.8 0.0
18/02:30pm NE 8 11 - - - - 10 - - 20.8 1018.1 0.0
18/02:00pm ENE 8 11 - - - - 10 - - 20.8 1018.4 0.0
18/01:30pm ENE 9 11 - - - - 10 - - 20.8 1018.7 0.0
18/01:00pm NE 8 11 - - - - 10 - - 20.8 1019.2 0.0
18/12:30pm NE 9 11 - - - - 10 - - 21.1 1019.5 0.0
18/12:00pm NE 9 11 - - - - 10 - - 21.2 1020.0 0.0
18/11:30am ENE 7 10 - - - - 10 - - 21.9 1020.5 0.0
18/11:00am ESE 8 12 - - - - 10 - - 21.6 1020.9 0.0
18/10:30am SSE 5 8 - - - - 10 Partly cloudy - 21.3 1021.2 0.0
18/10:00am S 6 9 - - - - 10 Partly cloudy - 20.8 1021.6 0.0
18/09:30am S 7 11 - - - - 10 - - 20.7 1022.0 0.0
18/09:00am S 7 12 - - - - 10 - - 20.2 1022.0 0.0
18/08:30am S 6 9 - - - - 10 - - 19.6 1021.8 0.0
18/08:00am SSW 6 9 - - - - 10 - - 18.5 1021.4 0.0
18/07:30am SSW 5 8 - - - - 10 - - 17.3 1021.2 0.0
18/07:00am S 4 7 - - - - 10 - - 15.1 1021.1 0.0
18/06:30am S 5 7 - - - - 10 - - 14.6 1021.0 0.0
18/06:00am S 5 7 - - - - 10 - - 14.7 1020.7 0.0
18/05:30am SSW 7 9 - - - - 10 - - 15.6 1020.4 0.0
18/05:00am SSW 6 9 - - - - 10 - - 15.6 1020.2 0.0
18/04:30am SSW 5 8 - - - - 10 - - 15.5 1019.9 0.0
18/04:00am SSW 6 8 - - - - 10 - - 16.1 1019.8 0.0
18/03:30am SSW 7 10 - - - - 10 - - 16.6 1019.7 0.0
18/03:00am SSW 8 11 - - - - 10 - - 16.7 1019.7 0.0
18/02:30am SSW 8 11 - - - - 10 - - 17.0 1020.0 0.0
18/02:00am SSW 8 12 - - - - 10 - - 16.9 1020.1 0.0
18/01:30am SSW 7 11 - - - - 10 - - 17.1 1020.1 0.0
18/01:00am SSW 7 10 - - - - 10 - - 17.5 1020.2 0.0
18/12:30am SSW 7 9 - - - - 10 - - 17.3 1020.2 0.0
18/12:00am SSW 8 11 - - - - 10 - - 17.4 1020.1 0.0
 
Date/Time
EST
Wind Sea
Height
m
Swell Vis
km
Cloud Weather Temp
°C
Press
hPa
Rain since
9am
mm
Dir  Spd
kts
Gust
kts
Height
m
Period
s
Dir
17/11:30pm SSW 9 13 - - - - 10 - - 17.3 1019.9 0.0
17/11:00pm S 8 13 - - - - 10 - - 16.2 1019.8 0.0
17/10:30pm WSW 3 5 - - - - 10 - - 14.9 1019.3 0.0
17/10:00pm S 8 10 - - - - 10 - - 15.2 1019.1 0.0
17/09:30pm WSW 6 7 - - - - 10 - - 14.0 1018.5 0.0
17/09:00pm WSW 5 6 - - - - 10 - - 14.0 1018.3 0.0
17/08:30pm WSW 5 6 - - - - 10 - - 14.3 1018.2 0.0
17/08:00pm WSW 5 6 - - - - 10 - - 14.9 1018.1 0.0
17/07:30pm WSW 4 5 - - - - 10 - - 15.4 1017.8 0.0
17/07:00pm W 5 6 - - - - 10 - - 16.3 1017.7 0.0
17/06:30pm N 3 5 - - - - 10 - - 18.1 1017.3 0.0
17/06:00pm NNW 4 6 - - - - 10 - - 19.3 1016.8 0.0
17/05:30pm NE 6 8 - - - - 10 - - 20.1 1016.6 0.0
17/05:00pm NE 5 8 - - - - 10 - - 20.9 1016.3 0.0
17/04:30pm NNE 9 11 - - - - 10 - - 21.3 1015.9 0.0
17/04:00pm NNE 10 14 - - - - 10 - - 21.8 1015.6 0.0
17/03:30pm NNE 12 15 - - - - 10 - - 22.5 1015.4 0.0
17/03:00pm NNE 11 16 - - - - 10 - - 22.6 1015.3 0.0
17/02:30pm N 14 16 - - - - 10 - - 23.9 1015.4 0.0
17/02:00pm N 13 17 - - - - 10 - - 23.9 1015.5 0.0
17/01:30pm N 14 17 - - - - 10 - - 25.0 1015.7 0.0
17/01:00pm N 13 17 - - - - 10 - - 24.8 1016.0 0.0
17/12:30pm N 14 17 - - - - 10 - - 24.7 1016.4 0.0
17/12:00pm N 13 16 - - - - 10 - - 24.5 1017.0 0.0
17/11:30am N 13 15 - - - - 10 - - 24.5 1017.5 0.0
17/11:00am N 13 15 - - - - 10 - - 24.4 1018.1 0.0
17/10:30am N 11 14 - - - - 10 - - 24.4 1018.5 0.0
17/10:00am NW 8 11 - - - - 10 - - 23.2 1018.8 0.0
17/09:30am NW 7 9 - - - - 10 - - 22.4 1019.0 0.0
17/09:00am NNW 8 10 - - - - 10 - - 20.6 1019.3 0.0
17/08:30am NNW 7 9 - - - - 10 - - 20.0 1019.5 0.0
17/08:00am NNW 7 11 - - - - 10 - - 18.4 1019.6 0.0
17/07:30am N 9 11 - - - - 10 - - 17.0 1019.5 0.0
17/07:00am N 6 8 - - - - 10 - - 15.7 1019.2 0.0
17/06:30am NNW 6 8 - - - - 10 - - 14.7 1018.9 0.0
17/06:00am NW 5 7 - - - - 10 - - 14.6 1018.5 0.0
17/05:30am NW 6 9 - - - - 10 - - 14.8 1018.2 0.0
17/05:00am NW 6 9 - - - - 10 - - 14.8 1017.9 0.0
17/04:30am NNW 7 9 - - - - 10 - - 15.0 1017.9 0.0

Other formats

Comma delimited format used in spreadsheet applications
http://www.bom.gov.au/fwo/IDN60701/IDN60701.94592.axf

JavaScript Object Notation format (JSON) in row-major order
http://www.bom.gov.au/fwo/IDN60701/IDN60701.94592.json

Data quality

Most of these data are generated automatically and are frequently updated. Quality checks on data are not normally performed. It is possible for incorrect values to appear. Refer to information at About Latest Weather Observations and please check the disclaimer before using these data.